Lindenholt, Netherlands
Current Conditions -  °F | °C
As of 1:29 PM on Monday 26 Jan 2015 (Local Time) from EHVK Reporting Station
Drizzle Drizzle  
Wind Chill: 37°   Ceiling: 200
Heat Index: 43°   Visibility: 0.81mi
Dew Point: 43°   Wind: 9mph
Humidity: 100%   Direction: 220°SW
Pressure: 30.03"   Gusts: NA
Location:  51.83°N, 5.79°E
Report Text: EHVK 261229Z AUTO 22008KT 1300 -DZ BKN002 OVC004 06/06 Q1017 REDZ AMB
Loading
Personal Weather Stations






























Interactive Weather Map New forecast layout! Learn more

10-Day Weather Forecast

Advertisements
Track Severe Weather on mobile